Time;durP1;ratioP1;P1;durP2;ratioP2;P2;SDS_P1;SDS_P2;PMS_P1;PMS_P2;Temp;Humidity;BMP_temperature;BMP_pressure;BME280_temperature;BME280_humidity;BME280_pressure;Samples;Min_cycle;Max_cycle;Signal;HPM_P1;HPM_P2
2022/08/24 00:00:27;;;;;;;5.40;4.00;;;14.40;99.90;;;;;;5073097;28;20047;-47
2022/08/24 00:02:54;;;;;;;5.03;3.45;;;14.20;99.90;;;;;;5073104;28;20047;-48
2022/08/24 00:05:21;;;;;;;5.03;3.97;;;14.10;99.90;;;;;;5071952;28;20044;-46
2022/08/24 00:07:49;;;;;;;7.07;4.95;;;13.90;99.90;;;;;;5071641;28;20037;-47
2022/08/24 00:10:16;;;;;;;7.13;4.55;;;13.70;99.90;;;;;;5072882;28;20051;-47
2022/08/24 00:12:43;;;;;;;6.78;4.18;;;13.70;99.90;;;;;;5071433;28;20041;-47
2022/08/24 00:15:12;;;;;;;7.18;4.53;;;13.60;99.90;;;;;;5072142;28;20627;-49
2022/08/24 00:17:39;;;;;;;7.90;4.75;;;13.60;99.90;;;;;;5072579;28;20519;-48
2022/08/24 00:20:08;;;;;;;8.38;5.72;;;13.50;99.90;;;;;;5071300;28;20036;-48
2022/08/24 00:22:34;;;;;;;5.75;4.63;;;13.50;99.90;;;;;;5084899;28;20396;-47
2022/08/24 00:25:02;;;;;;;7.47;5.20;;;13.50;99.90;;;;;;5092927;28;20036;-47
2022/08/24 00:27:29;;;;;;;7.63;4.78;;;13.50;99.90;;;;;;5069893;28;20115;-48
2022/08/24 00:29:56;;;;;;;6.20;5.00;;;13.50;99.90;;;;;;5070262;28;20041;-49
2022/08/24 00:32:23;;;;;;;6.32;4.28;;;13.50;99.90;;;;;;5071197;28;20044;-48
2022/08/24 00:34:50;;;;;;;8.93;5.82;;;13.50;99.90;;;;;;5071462;28;20794;-47
2022/08/24 00:37:27;;;;;;;5.18;4.47;;;13.60;99.90;;;;;;5054404;28;20048;-49
2022/08/24 00:39:54;;;;;;;6.82;4.75;;;13.60;99.90;;;;;;5053842;28;20043;-47
2022/08/24 00:42:21;;;;;;;;;;;13.60;99.90;;;;;;5045263;28;20037;-47
2022/08/24 00:44:48;;;;;;;7.60;4.07;;;13.60;99.90;;;;;;5054172;28;19927;-47
2022/08/24 00:47:23;;;;;;;4.72;4.10;;;13.60;99.90;;;;;;5054012;28;20496;-47
2022/08/24 00:49:50;;;;;;;5.75;4.20;;;13.60;99.90;;;;;;5053413;28;20044;-47
2022/08/24 00:52:30;;;;;;;6.30;4.15;;;13.60;99.90;;;;;;5073015;28;20497;-48
2022/08/24 00:55:04;;;;;;;5.60;4.50;;;13.50;99.90;;;;;;5054037;28;20044;-47
2022/08/24 00:57:36;;;;;;;7.13;4.00;;;13.50;99.90;;;;;;5053613;28;20047;-47
2022/08/24 01:00:11;;;;;;;5.13;4.10;;;13.40;99.90;;;;;;5079794;28;20039;-49
2022/08/24 01:02:42;;;;;;;5.35;4.20;;;13.50;99.90;;;;;;5045626;28;20075;-48
2022/08/24 01:05:11;;;;;;;9.88;4.28;;;13.50;99.90;;;;;;5071615;28;20052;-47
2022/08/24 01:07:39;;;;;;;8.43;4.57;;;13.50;99.90;;;;;;5049407;28;20036;-47
2022/08/24 01:10:13;;;;;;;4.57;4.03;;;13.50;99.90;;;;;;5041817;28;20140;-48
2022/08/24 01:12:44;;;;;;;4.65;3.85;;;13.40;99.90;;;;;;5033121;28;20051;-48
2022/08/24 01:15:31;;;;;;;4.75;3.63;;;13.40;99.90;;;;;;5064155;28;20049;-47
2022/08/24 01:20:51;;;;;;;4.45;3.97;;;13.30;99.90;;;;;;5070090;28;20048;-49
2022/08/24 01:23:47;;;;;;;6.25;4.47;;;13.40;99.90;;;;;;5069266;28;20047;-47
2022/08/24 01:26:45;;;;;;;8.98;5.55;;;13.40;99.90;;;;;;5046638;28;20047;-49
2022/08/24 01:29:19;;;;;;;9.25;5.85;;;13.50;99.90;;;;;;5064433;28;20048;-48
2022/08/24 01:31:50;;;;;;;8.07;4.13;;;13.50;99.90;;;;;;5069622;28;20044;-48
2022/08/24 01:34:17;;;;;;;6.70;5.15;;;13.50;99.90;;;;;;5071148;28;20406;-48
2022/08/24 01:36:47;;;;;;;6.97;4.78;;;13.50;99.90;;;;;;5053581;28;20056;-48
2022/08/24 01:39:33;;;;;;;9.95;5.70;;;13.50;99.90;;;;;;5070194;28;20055;-47
2022/08/24 01:42:01;;;;;;;11.65;5.20;;;13.50;99.90;;;;;;5069555;28;20045;-48
2022/08/24 01:44:29;;;;;;;;;;;13.60;99.90;;;;;;5070006;28;20047;-47
2022/08/24 01:46:56;;;;;;;11.02;5.05;;;13.60;99.90;;;;;;5071224;28;19927;-47
2022/08/24 01:49:28;;;;;;;8.90;5.70;;;13.50;99.90;;;;;;5070306;28;20035;-48
2022/08/24 01:51:56;;;;;;;10.88;6.00;;;13.50;99.90;;;;;;5032786;28;20045;-48
2022/08/24 01:54:23;;;;;;;8.93;6.22;;;13.50;99.90;;;;;;5069618;28;20040;-47
2022/08/24 01:56:50;;;;;;;10.43;5.20;;;13.50;99.90;;;;;;5052634;28;20053;-48
2022/08/24 01:59:18;;;;;;;8.02;4.32;;;13.40;99.90;;;;;;5068638;28;20140;-51
2022/08/24 02:01:50;;;;;;;5.28;4.55;;;13.40;99.90;;;;;;5052237;28;20045;-48
2022/08/24 02:04:18;;;;;;;5.63;4.72;;;13.20;99.90;;;;;;5052777;28;20479;-47
2022/08/24 02:06:47;;;;;;;8.23;5.32;;;13.10;99.90;;;;;;5069917;28;20472;-47
2022/08/24 02:09:15;;;;;;;6.63;4.38;;;12.90;99.90;;;;;;5050894;28;20554;-48
2022/08/24 02:11:42;;;;;;;;;;;12.90;99.90;;;;;;5070242;28;20041;-47
2022/08/24 02:14:12;;;;;;;7.85;4.43;;;12.80;99.90;;;;;;5069382;28;19924;-48
2022/08/24 02:16:41;;;;;;;8.30;4.88;;;12.80;99.90;;;;;;5069517;28;20059;-48
2022/08/24 02:19:07;;;;;;;6.45;4.60;;;12.70;99.90;;;;;;5051478;28;20206;-48
2022/08/24 02:21:36;;;;;;;5.22;4.50;;;12.60;99.90;;;;;;5053028;28;20044;-48
2022/08/24 02:24:06;;;;;;;7.30;4.15;;;12.60;99.90;;;;;;5069304;28;20041;-47
2022/08/24 02:26:32;;;;;;;5.75;3.90;;;12.50;99.90;;;;;;5065292;28;20045;-47
2022/08/24 02:28:59;;;;;;;4.75;4.13;;;12.50;99.90;;;;;;5065117;28;20572;-47
2022/08/24 02:31:32;;;;;;;11.45;4.15;;;12.40;99.90;;;;;;5069489;28;20053;-47
2022/08/24 02:33:59;;;;;;;5.03;3.83;;;12.40;99.90;;;;;;5050551;28;20492;-47
2022/08/24 02:36:26;;;;;;;5.47;4.00;;;12.30;99.90;;;;;;5053106;28;20048;-48
2022/08/24 02:38:57;;;;;;;5.90;4.32;;;12.30;99.90;;;;;;5069131;28;20040;-48
2022/08/24 02:41:24;;;;;;;6.00;3.58;;;12.40;99.90;;;;;;5071134;28;20079;-47
2022/08/24 02:43:53;;;;;;;6.05;4.05;;;12.30;99.90;;;;;;5052314;28;20036;-48
2022/08/24 02:46:22;;;;;;;7.65;4.18;;;12.20;99.90;;;;;;5068970;28;20048;-47
2022/08/24 02:48:50;;;;;;;5.85;4.15;;;12.20;99.90;;;;;;5036595;28;20132;-47
2022/08/24 02:51:36;;;;;;;5.85;4.28;;;12.20;99.90;;;;;;5046633;28;20128;-47
2022/08/24 02:54:16;;;;;;;7.95;4.25;;;12.10;99.90;;;;;;5067439;28;20114;-47
2022/08/24 02:56:46;;;;;;;6.65;4.45;;;12.10;99.90;;;;;;5052652;28;20045;-48
2022/08/24 02:59:14;;;;;;;4.57;4.10;;;12.20;99.90;;;;;;5052747;28;20519;-51
2022/08/24 03:01:41;;;;;;;7.75;4.13;;;12.20;99.90;;;;;;5040510;28;20033;-47
2022/08/24 03:04:08;;;;;;;;;;;12.10;99.90;;;;;;5062602;28;20128;-47
2022/08/24 03:06:36;;;;;;;5.60;4.30;;;12.10;99.90;;;;;;5061969;28;20328;-48
2022/08/24 03:09:03;;;;;;;4.50;4.10;;;12.10;99.90;;;;;;5051978;28;20041;-49
2022/08/24 03:11:30;;;;;;;5.22;3.92;;;12.10;99.90;;;;;;5060945;28;20515;-50
2022/08/24 03:13:58;;;;;;;;;;;12.10;99.90;;;;;;5068408;28;20538;-47
2022/08/24 03:16:27;;;;;;;8.45;4.15;;;12.10;99.90;;;;;;5068273;28;19927;-48
2022/08/24 03:18:54;;;;;;;7.63;5.00;;;12.10;99.90;;;;;;5068857;28;20053;-47
2022/08/24 03:21:35;;;;;;;8.25;4.30;;;12.10;99.90;;;;;;5020565;28;20049;-48
2022/08/24 03:24:08;;;;;;;6.03;4.75;;;12.10;99.90;;;;;;5032805;28;20379;-49
2022/08/24 03:26:35;;;;;;;6.82;3.88;;;12.10;99.90;;;;;;5015216;28;20522;-48
2022/08/24 03:29:02;;;;;;;10.20;4.38;;;12.10;99.90;;;;;;5032704;28;20801;-48
2022/08/24 03:31:31;;;;;;;5.80;4.25;;;12.10;99.90;;;;;;5029117;28;20087;-47
2022/08/24 03:33:58;;;;;;;6.50;4.72;;;12.10;99.90;;;;;;5015399;28;20041;-47
2022/08/24 03:36:26;;;;;;;6.80;4.70;;;12.10;99.90;;;;;;5015375;28;20068;-47
2022/08/24 03:38:53;;;;;;;7.03;4.38;;;12.10;99.90;;;;;;5031815;28;20391;-48
2022/08/24 03:41:19;;;;;;;5.53;4.28;;;12.20;99.90;;;;;;5015025;28;20037;-48
2022/08/24 03:43:47;;;;;;;7.00;4.70;;;12.20;99.90;;;;;;5015209;28;20076;-47
2022/08/24 03:46:21;;;;;;;6.78;4.53;;;12.20;99.90;;;;;;5013211;28;20057;-48
2022/08/24 03:48:52;;;;;;;11.50;4.60;;;12.20;99.90;;;;;;5014626;28;20062;-48
2022/08/24 03:51:23;;;;;;;9.75;4.65;;;12.10;99.90;;;;;;5033149;28;20041;-48
2022/08/24 03:53:51;;;;;;;9.15;5.43;;;12.10;99.90;;;;;;5015264;28;20083;-48
2022/08/24 03:56:20;;;;;;;8.43;4.88;;;12.00;99.90;;;;;;5015575;28;20056;-48
2022/08/24 03:58:47;;;;;;;7.45;5.78;;;12.10;99.90;;;;;;5012324;28;20053;-47
2022/08/24 04:01:16;;;;;;;7.90;5.28;;;12.10;99.90;;;;;;5033149;28;20125;-47
2022/08/24 04:03:46;;;;;;;8.38;6.25;;;12.00;99.90;;;;;;5033251;28;20504;-45
2022/08/24 04:06:15;;;;;;;8.48;5.90;;;12.00;99.90;;;;;;4998227;28;20049;-47
2022/08/24 04:08:43;;;;;;;9.57;6.03;;;12.00;99.90;;;;;;5011304;28;20053;-47
2022/08/24 04:11:13;;;;;;;6.82;5.40;;;11.90;99.90;;;;;;5032945;28;20073;-49
2022/08/24 04:13:43;;;;;;;7.10;5.45;;;11.90;99.90;;;;;;5014955;28;20038;-47
2022/08/24 04:16:13;;;;;;;10.40;5.25;;;11.90;99.90;;;;;;5029458;28;20493;-47
2022/08/24 04:18:42;;;;;;;7.07;5.55;;;11.90;99.90;;;;;;5015218;28;20128;-47
2022/08/24 04:21:24;;;;;;;7.35;5.13;;;11.80;99.90;;;;;;5013876;28;20064;-47
2022/08/24 04:23:52;;;;;;;9.50;5.40;;;11.80;99.90;;;;;;4998737;28;20045;-47
2022/08/24 04:26:19;;;;;;;;;;;11.80;99.90;;;;;;5014968;28;20038;-47
2022/08/24 04:29:09;;;;;;;6.57;4.75;;;11.70;99.90;;;;;;5015154;28;20369;-47
2022/08/24 04:31:42;;;;;;;8.13;5.90;;;11.70;99.90;;;;;;5010874;28;20097;-47
2022/08/24 04:34:12;;;;;;;7.13;5.80;;;11.60;99.90;;;;;;5011277;28;20076;-48
2022/08/24 04:36:41;;;;;;;8.07;5.85;;;11.60;99.90;;;;;;5011602;28;20046;-47
2022/08/24 04:39:08;;;;;;;8.88;6.10;;;11.60;99.90;;;;;;5012827;28;20061;-47
2022/08/24 04:41:55;;;;;;;7.88;5.88;;;11.70;99.90;;;;;;5032753;28;20049;-47
2022/08/24 04:44:25;;;;;;;8.75;5.28;;;11.80;99.90;;;;;;5014249;28;20052;-47
2022/08/24 04:46:52;;;;;;;6.88;5.70;;;11.80;99.90;;;;;;5031556;28;20047;-47
2022/08/24 04:49:19;;;;;;;8.63;5.13;;;11.90;99.90;;;;;;5011720;28;20049;-47
2022/08/24 04:51:45;;;;;;;6.63;4.50;;;11.90;99.90;;;;;;5032493;28;20771;-48
2022/08/24 04:54:14;;;;;;;8.20;5.10;;;12.00;99.90;;;;;;5014133;28;20046;-48
2022/08/24 04:56:40;;;;;;;11.45;4.95;;;12.00;99.90;;;;;;5017746;28;20409;-47
2022/08/24 04:59:08;;;;;;;7.82;5.43;;;12.00;99.90;;;;;;5031898;28;20045;-47
2022/08/24 05:01:35;;;;;;;7.95;5.50;;;12.00;99.90;;;;;;5023830;28;20040;-48
2022/08/24 05:04:04;;;;;;;10.05;5.78;;;12.10;99.90;;;;;;5010708;28;20064;-47
2022/08/24 05:06:32;;;;;;;7.05;5.03;;;12.10;99.90;;;;;;5012266;28;20076;-48
2022/08/24 05:09:01;;;;;;;7.70;5.55;;;12.10;99.90;;;;;;5014425;28;20457;-47
2022/08/24 05:11:28;;;;;;;8.60;5.90;;;12.30;99.90;;;;;;5013189;28;20140;-47
2022/08/24 05:13:55;;;;;;;;;;;12.00;99.90;;;;;;5009900;28;20049;-47
2022/08/24 05:16:24;;;;;;;9.63;5.97;;;12.00;99.90;;;;;;5005354;28;19928;-48
2022/08/24 05:18:53;;;;;;;11.73;7.35;;;12.00;99.90;;;;;;5014270;28;20044;-49
2022/08/24 05:21:22;;;;;;;13.60;7.15;;;12.10;99.90;;;;;;5011148;28;20037;-47
2022/08/24 05:23:50;;;;;;;9.80;6.78;;;12.20;99.90;;;;;;5018386;28;20497;-48
2022/08/24 05:26:24;;;;;;;;;;;12.40;99.90;;;;;;5011791;28;20168;-47
2022/08/24 05:29:01;;;;;;;10.50;6.78;;;12.50;99.90;;;;;;5030151;28;19921;-47
2022/08/24 05:31:42;;;;;;;;;;;12.60;99.90;;;;;;5008750;28;20074;-47
2022/08/24 05:34:09;;;;;;;10.20;6.82;;;12.70;99.90;;;;;;5023907;28;19928;-47
2022/08/24 05:36:38;;;;;;;9.50;6.78;;;12.80;99.90;;;;;;5005348;28;20037;-47
2022/08/24 05:39:09;;;;;;;11.70;6.90;;;12.90;99.90;;;;;;5012366;28;20057;-48
2022/08/24 05:41:41;;;;;;;8.30;6.40;;;13.00;99.90;;;;;;5009490;28;20030;-47
2022/08/24 05:44:17;;;;;;;8.90;6.20;;;13.00;99.90;;;;;;5012954;28;20052;-47
2022/08/24 05:46:45;;;;;;;7.88;6.53;;;13.10;99.90;;;;;;5013160;28;20057;-47
2022/08/24 05:49:12;;;;;;;11.60;7.05;;;13.10;99.90;;;;;;5030304;28;20052;-47
2022/08/24 05:51:41;;;;;;;12.70;6.93;;;13.10;99.90;;;;;;5004841;28;20042;-47
2022/08/24 05:54:12;;;;;;;8.20;6.60;;;13.20;99.90;;;;;;5004693;28;20140;-48
2022/08/24 05:56:54;;;;;;;8.38;6.38;;;13.20;99.90;;;;;;5013365;28;20632;-47
2022/08/24 05:59:22;;;;;;;10.27;6.80;;;13.30;99.90;;;;;;5012092;28;20045;-47
2022/08/24 06:01:50;;;;;;;11.52;6.68;;;13.40;99.90;;;;;;5013467;28;20045;-47
2022/08/24 06:04:17;;;;;;;12.45;6.80;;;13.40;99.90;;;;;;5009342;28;20058;-47
2022/08/24 06:06:44;;;;;;;8.13;5.63;;;13.50;99.90;;;;;;5031350;28;20041;-47
2022/08/24 06:09:15;;;;;;;7.50;5.60;;;13.50;99.90;;;;;;5013198;28;20041;-47
2022/08/24 06:11:45;;;;;;;12.10;6.25;;;13.50;99.90;;;;;;5013457;28;20509;-47
2022/08/24 06:14:16;;;;;;;9.73;6.45;;;13.60;99.90;;;;;;5009617;28;20156;-47
2022/08/24 06:16:51;;;;;;;8.60;5.38;;;13.70;99.90;;;;;;5010161;28;20438;-48
2022/08/24 06:19:19;;;;;;;10.27;5.78;;;13.80;99.90;;;;;;4993035;28;20578;-47
2022/08/24 06:21:47;;;;;;;;;;;13.90;99.90;;;;;;4999025;28;20041;-48
2022/08/24 06:24:14;;;;;;;8.80;6.30;;;13.90;99.90;;;;;;5012640;28;19921;-48
2022/08/24 06:29:32;;;;;;;11.38;6.25;;;14.10;99.90;;;;;;5010855;28;20131;-47
2022/08/24 06:32:16;;;;;;;9.20;6.35;;;14.20;99.90;;;;;;5011010;28;20072;-49
2022/08/24 06:34:43;;;;;;;6.97;5.63;;;14.30;99.90;;;;;;5012746;28;20049;-47
2022/08/24 06:37:09;;;;;;;8.60;5.50;;;14.50;99.90;;;;;;5029817;28;20505;-47
2022/08/24 06:39:37;;;;;;;12.15;5.80;;;14.50;99.90;;;;;;5019866;28;20045;-48
2022/08/24 06:42:04;;;;;;;9.43;5.57;;;14.70;99.90;;;;;;5013375;28;20045;-46
2022/08/24 06:44:32;;;;;;;7.03;5.38;;;14.80;99.90;;;;;;5038213;28;20045;-47
2022/08/24 06:47:14;;;;;;;9.38;5.05;;;15.00;99.90;;;;;;5022094;28;20049;-49
2022/08/24 06:49:41;;;;;;;6.50;4.93;;;15.30;99.90;;;;;;5018323;28;20042;-47
2022/08/24 06:52:10;;;;;;;13.02;5.38;;;15.40;99.90;;;;;;5050562;28;20229;-48
2022/08/24 06:54:38;;;;;;;5.57;4.50;;;15.50;99.90;;;;;;5028730;28;20509;-46
2022/08/24 06:57:07;;;;;;;7.95;5.00;;;15.70;99.90;;;;;;5016802;28;20045;-50
2022/08/24 06:59:34;;;;;;;7.78;4.50;;;15.80;99.90;;;;;;5034218;28;20418;-47
2022/08/24 07:02:01;;;;;;;11.32;5.22;;;15.90;99.90;;;;;;5033308;28;20449;-47
2022/08/24 07:04:31;;;;;;;7.18;4.60;;;16.00;99.90;;;;;;5014439;28;20047;-47
2022/08/24 07:07:37;;;;;;;9.02;5.40;;;16.00;99.90;;;;;;4992964;28;20053;-48
2022/08/24 07:10:08;;;;;;;6.18;4.22;;;16.00;99.90;;;;;;4969508;28;20047;-47
2022/08/24 07:12:35;;;;;;;7.88;5.32;;;16.20;99.90;;;;;;4990307;28;20045;-48
2022/08/24 07:15:04;;;;;;;7.35;4.60;;;16.30;99.90;;;;;;5022865;28;20045;-47
2022/08/24 07:17:38;;;;;;;6.38;4.47;;;16.40;99.90;;;;;;5026431;28;20073;-47
2022/08/24 07:20:05;;;;;;;10.20;5.05;;;16.50;99.90;;;;;;5019813;28;20116;-48
2022/08/24 07:23:06;;;;;;;9.43;5.35;;;16.60;99.90;;;;;;5030704;28;20544;-47
2022/08/24 07:25:33;;;;;;;6.57;4.85;;;16.70;99.90;;;;;;5046529;28;20037;-47
2022/08/24 07:28:01;;;;;;;8.13;5.25;;;16.80;99.90;;;;;;5009864;28;20111;-47
2022/08/24 07:30:36;;;;;;;8.95;4.97;;;16.90;99.90;;;;;;5016506;28;20451;-48
2022/08/24 07:33:03;;;;;;;;;;;17.00;99.90;;;;;;5016462;28;20069;-47
2022/08/24 07:35:32;;;;;;;6.57;4.55;;;17.10;99.90;;;;;;5025327;28;19920;-47
2022/08/24 07:37:59;;;;;;;8.88;4.53;;;17.30;99.90;;;;;;5011907;28;20418;-48
2022/08/24 07:40:28;;;;;;;7.32;4.95;;;17.40;99.90;;;;;;5032136;28;20217;-48
2022/08/24 07:42:56;;;;;;;4.68;4.13;;;17.60;99.90;;;;;;5016053;28;20037;-47
2022/08/24 07:45:25;;;;;;;7.05;4.40;;;17.70;99.90;;;;;;5008705;28;20042;-48
2022/08/24 07:47:52;;;;;;;8.25;4.50;;;17.70;99.90;;;;;;5015943;28;20087;-48
2022/08/24 07:50:45;;;;;;;7.05;4.60;;;17.80;99.90;;;;;;5015577;28;20052;-47
2022/08/24 07:53:13;;;;;;;7.20;4.70;;;17.90;99.90;;;;;;5011649;28;20073;-47
2022/08/24 07:55:53;;;;;;;10.38;4.95;;;18.00;99.90;;;;;;5032000;28;20053;-47
2022/08/24 07:58:20;;;;;;;6.30;4.53;;;17.90;99.90;;;;;;5015518;28;20152;-47
2022/08/24 08:00:48;;;;;;;7.47;4.80;;;18.10;99.90;;;;;;5009814;28;20045;-47
2022/08/24 08:03:15;;;;;;;8.45;4.70;;;18.20;99.90;;;;;;5029646;28;20034;-47
2022/08/24 08:05:44;;;;;;;6.03;4.35;;;18.30;99.90;;;;;;5014268;28;20041;-47
2022/08/24 08:08:11;;;;;;;11.45;4.78;;;18.40;99.90;;;;;;5032105;28;20502;-47
2022/08/24 08:10:39;;;;;;;7.47;4.18;;;18.50;99.90;;;;;;5022803;28;20128;-48
2022/08/24 08:13:07;;;;;;;7.45;4.30;;;18.70;99.90;;;;;;5031873;28;20100;-47
2022/08/24 08:15:34;;;;;;;5.18;4.00;;;18.70;99.90;;;;;;5014744;28;20056;-47
2022/08/24 08:18:08;;;;;;;5.95;4.05;;;18.70;99.90;;;;;;5031930;28;20449;-48
2022/08/24 08:20:39;;;;;;;7.25;4.05;;;18.90;99.90;;;;;;5024411;28;20049;-45
2022/08/24 08:26:21;;;;;;;8.93;4.00;;;19.00;99.90;;;;;;5014366;28;20131;-47
2022/08/24 08:28:59;;;;;;;9.60;4.03;;;19.20;99.90;;;;;;5031557;28;20517;-49
2022/08/24 08:31:26;;;;;;;5.72;4.13;;;19.30;99.90;;;;;;4998146;28;20132;-47
2022/08/24 08:33:53;;;;;;;8.07;4.80;;;19.50;99.90;;;;;;5007842;28;20073;-48
2022/08/24 08:36:21;;;;;;;4.55;3.60;;;19.60;99.90;;;;;;5015173;28;20425;-48
2022/08/24 08:38:49;;;;;;;4.40;3.50;;;19.80;99.90;;;;;;5014239;28;20041;-47
2022/08/24 08:41:16;;;;;;;7.75;4.05;;;20.00;99.90;;;;;;5015233;28;20099;-47
2022/08/24 08:44:15;;;;;;;6.67;4.30;;;20.20;99.90;;;;;;5027120;28;20486;-47
2022/08/24 08:47:19;;;;;;;5.13;3.70;;;20.20;99.90;;;;;;5031050;28;20296;-47
2022/08/24 08:50:01;;;;;;;6.93;3.53;;;20.30;99.90;;;;;;5008004;28;20037;-47
2022/08/24 08:53:03;;;;;;;4.85;3.70;;;20.40;99.90;;;;;;5031525;28;20095;-47
2022/08/24 08:55:39;;;;;;;6.63;3.42;;;20.50;99.90;;;;;;4976217;28;20064;-47
2022/08/24 08:58:23;;;;;;;3.67;3.38;;;20.70;99.90;;;;;;5002938;28;20042;-47
2022/08/24 09:01:06;;;;;;;6.13;3.53;;;20.80;99.90;;;;;;5030803;28;20049;-47
2022/08/24 09:03:59;;;;;;;6.45;3.17;;;20.80;99.90;;;;;;5020362;28;20099;-47
2022/08/24 09:06:39;;;;;;;5.90;3.50;;;21.00;99.90;;;;;;5023123;28;20100;-47
2022/08/24 09:09:18;;;;;;;6.75;3.60;;;21.10;99.90;;;;;;5013036;28;20151;-47
2022/08/24 09:11:51;;;;;;;7.00;3.25;;;21.10;99.90;;;;;;5014203;28;20092;-47
2022/08/24 09:15:05;;;;;;;8.52;3.70;;;21.10;99.90;;;;;;5023752;28;20045;-47
2022/08/24 09:17:41;;;;;;;6.75;3.63;;;21.10;99.90;;;;;;5013720;28;20442;-47
2022/08/24 09:20:18;;;;;;;5.53;3.20;;;21.20;99.90;;;;;;5048891;23;20131;-49
2022/08/24 09:22:47;;;;;;;5.20;3.55;;;21.30;99.90;;;;;;5049661;28;20037;-49
2022/08/24 09:25:34;;;;;;;7.18;3.60;;;21.30;99.90;;;;;;5032929;28;20045;-50
2022/08/24 09:28:13;;;;;;;5.25;3.42;;;21.40;99.90;;;;;;5032415;28;20045;-49
2022/08/24 09:31:09;;;;;;;4.38;3.03;;;21.60;99.90;;;;;;5048603;28;20137;-51
2022/08/24 09:33:59;;;;;;;5.68;3.55;;;21.70;99.90;;;;;;5071257;28;20055;-48
2022/08/24 09:36:26;;;;;;;8.35;3.00;;;21.80;99.90;;;;;;5071195;28;20051;-49
2022/08/24 09:38:57;;;;;;;;;;;22.00;99.90;;;;;;5071533;28;20048;-49
2022/08/24 09:41:48;;;;;;;3.97;2.97;;;22.00;99.90;;;;;;5076017;28;19943;-48
2022/08/24 09:44:33;;;;;;;3.35;2.90;;;22.10;99.90;;;;;;5086583;28;20041;-50
2022/08/24 09:47:27;;;;;;;3.47;3.17;;;22.30;99.90;;;;;;5071748;28;20028;-50
2022/08/24 09:50:22;;;;;;;6.70;2.80;;;22.30;99.90;;;;;;5071551;28;20041;-48
2022/08/24 09:53:13;;;;;;;7.38;3.20;;;22.30;99.90;;;;;;5069748;28;20102;-50
2022/08/24 09:56:37;;;;;;;4.90;2.65;;;22.30;99.90;;;;;;5063914;28;20451;-48
2022/08/24 09:59:41;;;;;;;4.50;2.97;;;22.30;99.90;;;;;;4989230;28;20511;-48
2022/08/24 10:02:47;;;;;;;4.25;2.58;;;22.30;99.90;;;;;;4987786;28;20085;-49
2022/08/24 10:05:49;;;;;;;4.53;2.88;;;22.30;99.90;;;;;;5070714;28;20048;-51
2022/08/24 10:08:38;;;;;;;3.00;2.70;;;22.30;99.90;;;;;;5068735;28;20044;-49
2022/08/24 10:11:26;;;;;;;5.20;2.72;;;22.50;99.90;;;;;;5070924;28;20048;-49
2022/08/24 10:13:54;;;;;;;3.67;2.70;;;22.50;99.90;;;;;;5070023;28;20071;-48
2022/08/24 10:16:37;;;;;;;2.50;2.30;;;22.70;99.90;;;;;;5069870;28;20095;-49
2022/08/24 10:19:38;;;;;;;3.13;2.67;;;22.70;99.00;;;;;;5071436;28;20055;-48
2022/08/24 10:22:24;;;;;;;3.75;2.58;;;22.80;99.70;;;;;;5070699;28;20052;-49
2022/08/24 10:25:25;;;;;;;12.05;4.10;;;22.80;99.90;;;;;;5070057;28;20044;-48
2022/08/24 10:28:20;;;;;;;3.08;2.45;;;22.80;99.90;;;;;;5049909;28;20071;-48
2022/08/24 10:31:03;;;;;;;8.88;2.97;;;23.00;99.90;;;;;;5029831;28;20550;-51
2022/08/24 10:33:51;;;;;;;3.53;3.08;;;23.00;99.90;;;;;;5074902;28;20051;-50
2022/08/24 10:36:40;;;;;;;4.10;2.75;;;23.00;99.90;;;;;;5074873;28;20063;-50
2022/08/24 10:39:58;;;;;;;3.22;2.65;;;23.10;99.90;;;;;;5074571;28;20395;-52
2022/08/24 10:45:37;;;;;;;6.28;2.90;;;23.00;99.90;;;;;;5070375;28;20062;-48
2022/08/24 10:48:11;;;;;;;2.83;2.40;;;23.00;99.90;;;;;;5070886;28;20075;-48
2022/08/24 10:51:21;;;;;;;4.03;2.60;;;23.00;99.90;;;;;;5074140;28;20041;-50
2022/08/24 10:53:50;;;;;;;5.90;3.03;;;23.10;99.90;;;;;;5069109;28;20255;-50
2022/08/24 10:56:21;;;;;;;4.60;3.03;;;23.20;99.90;;;;;;5074155;28;20048;-52
2022/08/24 10:58:51;;;;;;;3.85;2.75;;;23.40;99.90;;;;;;5073508;28;20045;-50
2022/08/24 11:01:29;;;;;;;6.35;3.17;;;23.50;99.90;;;;;;5075521;28;20244;-48
2022/08/24 11:04:01;;;;;;;5.00;3.28;;;23.70;99.90;;;;;;5069544;28;20482;-48
2022/08/24 11:06:32;;;;;;;3.95;3.55;;;23.90;99.90;;;;;;5074198;28;20048;-51
2022/08/24 11:09:09;;;;;;;5.75;3.35;;;24.00;99.90;;;;;;5070074;28;20122;-50
2022/08/24 11:11:39;;;;;;;3.75;2.70;;;23.90;99.90;;;;;;5060214;28;20103;-51
2022/08/24 11:14:15;;;;;;;5.35;2.90;;;24.10;99.90;;;;;;5064357;28;20464;-49
2022/08/24 11:16:45;;;;;;;5.93;2.78;;;24.20;99.90;;;;;;5072178;28;20045;-49
2022/08/24 11:19:12;;;;;;;3.60;3.17;;;24.30;99.90;;;;;;5073488;28;20131;-49
2022/08/24 11:21:44;;;;;;;7.00;3.38;;;24.20;99.90;;;;;;5072992;28;20123;-48
2022/08/24 11:24:16;;;;;;;4.82;2.72;;;24.30;99.90;;;;;;5073874;28;20044;-51
2022/08/24 11:26:57;;;;;;;3.95;2.88;;;24.20;99.90;;;;;;5068838;28;20118;-50
2022/08/24 11:29:50;;;;;;;4.18;3.00;;;24.20;99.90;;;;;;5073585;28;20106;-48
2022/08/24 11:32:31;;;;;;;4.55;2.50;;;24.10;99.90;;;;;;5070763;28;20049;-50
2022/08/24 11:35:19;;;;;;;3.50;2.35;;;24.10;99.90;;;;;;5072593;28;20055;-49
2022/08/24 11:37:47;;;;;;;6.10;2.70;;;24.10;99.90;;;;;;5073851;28;20044;-48
2022/08/24 11:40:15;;;;;;;3.50;2.38;;;24.20;99.90;;;;;;5071955;28;20052;-49
2022/08/24 11:42:48;;;;;;;3.50;2.83;;;24.20;99.90;;;;;;5067947;28;20575;-51
2022/08/24 11:45:27;;;;;;;4.63;2.88;;;24.30;99.90;;;;;;5071352;28;20051;-48
2022/08/24 11:47:57;;;;;;;2.83;2.55;;;24.50;99.90;;;;;;5073416;28;20094;-51
2022/08/24 11:50:28;;;;;;;6.13;3.13;;;24.50;99.90;;;;;;5072034;28;20044;-48
2022/08/24 11:53:10;;;;;;;3.97;2.88;;;24.50;99.90;;;;;;5073615;28;20032;-51
2022/08/24 11:56:09;;;;;;;3.60;2.60;;;24.50;99.90;;;;;;5073116;28;20067;-48
2022/08/24 11:59:03;;;;;;;4.50;2.67;;;24.60;99.90;;;;;;5068900;28;20041;-49
2022/08/24 12:01:45;;;;;;;3.80;2.80;;;24.60;99.90;;;;;;5072703;28;20052;-48
2022/08/24 12:04:34;;;;;;;4.80;2.95;;;24.50;99.90;;;;;;5073005;28;20045;-50
2022/08/24 12:07:12;;;;;;;4.55;2.78;;;24.60;99.90;;;;;;5068266;28;20044;-48
2022/08/24 12:09:53;;;;;;;3.75;2.70;;;24.60;99.90;;;;;;5073450;28;20052;-49
2022/08/24 12:12:30;;;;;;;5.38;2.92;;;24.70;99.90;;;;;;5072734;28;20037;-49
2022/08/24 12:15:06;;;;;;;3.40;2.85;;;24.80;99.90;;;;;;5068453;28;20068;-50
2022/08/24 12:17:38;;;;;;;8.23;2.90;;;24.90;99.90;;;;;;5065151;28;20047;-50
2022/08/24 12:20:24;;;;;;;6.40;2.70;;;24.90;99.90;;;;;;5072646;28;20452;-52
2022/08/24 12:22:56;;;;;;;4.22;2.75;;;24.90;99.70;;;;;;5070254;28;20099;-49
2022/08/24 12:28:19;;;;;;;6.88;2.53;;;25.00;99.70;;;;;;5071941;28;20054;-52
2022/08/24 12:30:46;;;;;;;4.90;2.88;;;25.00;99.80;;;;;;5072649;28;20095;-48
2022/08/24 12:33:13;;;;;;;;;;;25.10;99.90;;;;;;5071871;28;20059;-49
2022/08/24 12:35:52;;;;;;;3.08;2.53;;;25.00;99.20;;;;;;5072298;28;19928;-49
2022/08/24 12:38:28;;;;;;;4.25;2.33;;;25.00;99.90;;;;;;5072613;28;20040;-49
2022/08/24 12:41:15;;;;;;;5.13;2.42;;;25.10;99.90;;;;;;5070627;28;20413;-48
2022/08/24 12:43:53;;;;;;;4.78;2.60;;;25.10;99.60;;;;;;5072019;28;20036;-49
2022/08/24 12:46:22;;;;;;;3.15;2.63;;;25.20;99.90;;;;;;5051488;28;20096;-48
2022/08/24 12:48:55;;;;;;;5.25;3.00;;;25.20;99.60;;;;;;5078420;28;20040;-48
2022/08/24 12:51:57;;;;;;;5.72;3.25;;;25.20;99.10;;;;;;5091769;28;20484;-48
2022/08/24 12:54:56;;;;;;;3.75;2.58;;;25.20;99.90;;;;;;5083330;28;20044;-49
2022/08/24 12:57:51;;;;;;;12.25;2.90;;;25.00;98.00;;;;;;5045921;28;20127;-51
2022/08/24 13:00:35;;;;;;;3.30;2.60;;;25.00;98.80;;;;;;5071761;28;20056;-49
2022/08/24 13:03:08;;;;;;;4.78;2.40;;;25.00;99.00;;;;;;5070759;28;20091;-49
2022/08/24 13:05:47;;;;;;;7.00;2.97;;;25.00;98.60;;;;;;5077421;28;20518;-50
2022/08/24 13:08:30;;;;;;;3.00;2.70;;;25.10;99.10;;;;;;5092108;28;20040;-49
2022/08/24 13:11:11;;;;;;;10.52;2.70;;;25.20;98.50;;;;;;5082852;28;20094;-49
2022/08/24 13:13:47;;;;;;;3.10;2.80;;;25.20;99.10;;;;;;5075845;28;20077;-49
2022/08/24 13:16:49;;;;;;;4.22;2.72;;;25.10;98.70;;;;;;5091655;28;20047;-49
2022/08/24 13:19:22;;;;;;;3.47;2.53;;;25.20;98.30;;;;;;5060843;28;20055;-48
2022/08/24 13:21:52;;;;;;;2.72;2.30;;;25.30;99.00;;;;;;5053763;28;20051;-49
2022/08/24 13:24:29;;;;;;;4.07;2.28;;;25.30;98.40;;;;;;5068751;28;20044;-48
2022/08/24 13:27:17;;;;;;;3.03;2.55;;;25.20;98.90;;;;;;5063850;28;20043;-50
2022/08/24 13:29:48;;;;;;;7.22;2.53;;;25.30;98.00;;;;;;5070538;28;20052;-49
2022/08/24 13:32:23;;;;;;;3.53;2.30;;;25.30;97.40;;;;;;5070732;28;20047;-49
2022/08/24 13:34:56;;;;;;;3.45;2.83;;;25.40;98.20;;;;;;5070717;28;20040;-48
2022/08/24 13:37:25;;;;;;;3.92;2.60;;;25.60;97.40;;;;;;5071347;28;20051;-49
2022/08/24 13:40:12;;;;;;;2.65;2.45;;;25.70;97.70;;;;;;5070897;28;20051;-49